Portada
METAR-TAF:

METAR-TAF

Aeroports :

Lió, França

latitud: 45-43N, longitud: 004-57E, altitud: 200 m

Observació

L'informe es va fer fa 25 minuts, a les 20:30 UTC
Vent 8 kt del Nord-Oest, variant entre Oest i Nord
Temperatura 20°C
Humitat 43%
Pressió 1017 hPa
Visibilitat 10 km o més
sense núvols per sota de 1500 mi sense presència de cumulonimbus.

METAR: LFLY 292030Z AUTO 31008KT 280V350 CAVOK 20/07 Q1017

Hora: 22:55 (20:55 UTC)


TAF: manca

Observacions i pronòstics meteorològics de més de 4000 aeroports (METAR i TAF).

Les estacions disponibles són els punts grocs i vermells al mapa.

Posi el ratolí al punt desitjat per veure el nom de l'estació.

Feu clic per veure les observacions i els pronòstics meteorològics.

Per canviar el mapa: feu clic els botons verds amb una creu de color negre per apropar; al botó verd amb un guió per allunyar la imatge; o en les fletxes verdes per a mapes adjacents.


METAR-TAF: